sensor_id;sensor_type;location;lat;lon;timestamp;P1;durP1;ratioP1;P2;durP2;ratioP2
35602;SDS011;21725;50.836;4.368;2022-11-15T00:00:06;27.48;;;14.65;;
35602;SDS011;21725;50.836;4.368;2022-11-15T00:02:32;22.30;;;14.90;;
35602;SDS011;21725;50.836;4.368;2022-11-15T00:04:58;20.15;;;14.95;;
35602;SDS011;21725;50.836;4.368;2022-11-15T00:07:24;22.83;;;15.48;;
35602;SDS011;21725;50.836;4.368;2022-11-15T00:09:50;23.10;;;15.45;;
35602;SDS011;21725;50.836;4.368;2022-11-15T00:12:15;21.42;;;14.18;;
35602;SDS011;21725;50.836;4.368;2022-11-15T00:14:41;21.13;;;14.38;;
35602;SDS011;21725;50.836;4.368;2022-11-15T00:17:07;20.55;;;14.48;;
35602;SDS011;21725;50.836;4.368;2022-11-15T00:19:33;19.45;;;14.32;;
35602;SDS011;21725;50.836;4.368;2022-11-15T00:22:01;24.73;;;15.50;;
35602;SDS011;21725;50.836;4.368;2022-11-15T00:24:27;23.05;;;15.93;;
35602;SDS011;21725;50.836;4.368;2022-11-15T00:26:52;21.95;;;16.58;;
35602;SDS011;21725;50.836;4.368;2022-11-15T00:29:18;22.90;;;16.83;;
35602;SDS011;21725;50.836;4.368;2022-11-15T00:31:44;24.65;;;15.13;;
35602;SDS011;21725;50.836;4.368;2022-11-15T00:34:10;23.48;;;15.30;;
35602;SDS011;21725;50.836;4.368;2022-11-15T00:36:36;20.92;;;15.45;;
35602;SDS011;21725;50.836;4.368;2022-11-15T00:39:05;20.98;;;16.38;;
35602;SDS011;21725;50.836;4.368;2022-11-15T00:41:31;22.20;;;17.88;;
35602;SDS011;21725;50.836;4.368;2022-11-15T00:43:56;22.50;;;16.48;;
35602;SDS011;21725;50.836;4.368;2022-11-15T00:46:22;22.20;;;16.67;;
35602;SDS011;21725;50.836;4.368;2022-11-15T00:48:48;24.92;;;16.95;;
35602;SDS011;21725;50.836;4.368;2022-11-15T00:51:15;27.67;;;16.23;;
35602;SDS011;21725;50.836;4.368;2022-11-15T00:53:41;36.45;;;17.60;;
35602;SDS011;21725;50.836;4.368;2022-11-15T00:56:07;21.75;;;16.63;;
35602;SDS011;21725;50.836;4.368;2022-11-15T00:58:33;23.42;;;17.60;;
35602;SDS011;21725;50.836;4.368;2022-11-15T01:01:06;26.63;;;17.25;;
35602;SDS011;21725;50.836;4.368;2022-11-15T01:03:37;23.80;;;16.48;;
35602;SDS011;21725;50.836;4.368;2022-11-15T01:06:07;25.60;;;15.98;;
35602;SDS011;21725;50.836;4.368;2022-11-15T01:08:34;25.60;;;18.63;;
35602;SDS011;21725;50.836;4.368;2022-11-15T01:11:04;28.23;;;18.02;;
35602;SDS011;21725;50.836;4.368;2022-11-15T01:13:34;29.52;;;18.38;;
35602;SDS011;21725;50.836;4.368;2022-11-15T01:16:11;28.83;;;18.83;;
35602;SDS011;21725;50.836;4.368;2022-11-15T01:18:39;31.52;;;17.75;;
35602;SDS011;21725;50.836;4.368;2022-11-15T01:21:07;24.92;;;18.85;;
35602;SDS011;21725;50.836;4.368;2022-11-15T01:23:37;24.90;;;19.25;;
35602;SDS011;21725;50.836;4.368;2022-11-15T01:26:04;27.42;;;18.77;;
35602;SDS011;21725;50.836;4.368;2022-11-15T01:28:33;21.80;;;17.45;;
35602;SDS011;21725;50.836;4.368;2022-11-15T01:31:01;27.80;;;18.33;;
35602;SDS011;21725;50.836;4.368;2022-11-15T01:33:33;19.50;;;16.20;;
35602;SDS011;21725;50.836;4.368;2022-11-15T01:36:03;28.73;;;18.50;;
35602;SDS011;21725;50.836;4.368;2022-11-15T01:38:30;25.08;;;16.73;;
35602;SDS011;21725;50.836;4.368;2022-11-15T01:40:56;22.67;;;14.95;;
35602;SDS011;21725;50.836;4.368;2022-11-15T01:43:26;22.60;;;15.43;;
35602;SDS011;21725;50.836;4.368;2022-11-15T01:46:06;17.92;;;12.93;;
35602;SDS011;21725;50.836;4.368;2022-11-15T01:48:47;23.65;;;14.55;;
35602;SDS011;21725;50.836;4.368;2022-11-15T01:51:15;19.77;;;15.13;;
35602;SDS011;21725;50.836;4.368;2022-11-15T01:53:43;22.27;;;15.25;;
35602;SDS011;21725;50.836;4.368;2022-11-15T01:58:41;19.63;;;15.18;;
35602;SDS011;21725;50.836;4.368;2022-11-15T02:01:09;19.65;;;14.45;;
35602;SDS011;21725;50.836;4.368;2022-11-15T02:03:38;19.52;;;12.52;;
35602;SDS011;21725;50.836;4.368;2022-11-15T02:06:17;17.92;;;13.00;;
35602;SDS011;21725;50.836;4.368;2022-11-15T02:08:44;18.42;;;12.85;;
35602;SDS011;21725;50.836;4.368;2022-11-15T02:11:10;18.75;;;13.50;;
35602;SDS011;21725;50.836;4.368;2022-11-15T02:13:36;18.60;;;14.07;;
35602;SDS011;21725;50.836;4.368;2022-11-15T02:18:55;23.08;;;14.20;;
35602;SDS011;21725;50.836;4.368;2022-11-15T02:21:50;21.55;;;15.13;;
35602;SDS011;21725;50.836;4.368;2022-11-15T02:24:41;22.88;;;14.13;;
35602;SDS011;21725;50.836;4.368;2022-11-15T02:30:29;20.00;;;14.15;;
35602;SDS011;21725;50.836;4.368;2022-11-15T02:36:02;18.33;;;13.45;;
35602;SDS011;21725;50.836;4.368;2022-11-15T02:41:18;24.92;;;14.00;;
35602;SDS011;21725;50.836;4.368;2022-11-15T02:49:32;20.88;;;14.57;;
35602;SDS011;21725;50.836;4.368;2022-11-15T02:52:02;19.00;;;12.63;;
35602;SDS011;21725;50.836;4.368;2022-11-15T02:54:31;17.95;;;12.45;;
35602;SDS011;21725;50.836;4.368;2022-11-15T02:57:00;16.95;;;12.93;;
35602;SDS011;21725;50.836;4.368;2022-11-15T02:59:42;16.58;;;11.80;;
35602;SDS011;21725;50.836;4.368;2022-11-15T03:02:18;22.52;;;12.15;;
35602;SDS011;21725;50.836;4.368;2022-11-15T03:10:06;17.65;;;10.50;;
35602;SDS011;21725;50.836;4.368;2022-11-15T03:13:11;14.15;;;9.50;;
35602;SDS011;21725;50.836;4.368;2022-11-15T03:16:03;15.90;;;10.90;;
35602;SDS011;21725;50.836;4.368;2022-11-15T03:18:33;17.73;;;10.25;;
35602;SDS011;21725;50.836;4.368;2022-11-15T03:21:06;15.07;;;9.85;;
35602;SDS011;21725;50.836;4.368;2022-11-15T03:23:37;16.75;;;9.82;;
35602;SDS011;21725;50.836;4.368;2022-11-15T03:26:07;15.90;;;9.95;;
35602;SDS011;21725;50.836;4.368;2022-11-15T03:28:36;14.25;;;9.63;;
35602;SDS011;21725;50.836;4.368;2022-11-15T03:31:06;12.00;;;7.97;;
35602;SDS011;21725;50.836;4.368;2022-11-15T03:33:52;11.90;;;7.97;;
35602;SDS011;21725;50.836;4.368;2022-11-15T03:36:22;15.73;;;9.90;;
35602;SDS011;21725;50.836;4.368;2022-11-15T03:38:52;12.77;;;8.23;;
35602;SDS011;21725;50.836;4.368;2022-11-15T03:47:34;11.85;;;6.97;;
35602;SDS011;21725;50.836;4.368;2022-11-15T03:50:12;10.20;;;7.22;;
35602;SDS011;21725;50.836;4.368;2022-11-15T03:52:41;12.02;;;7.40;;
35602;SDS011;21725;50.836;4.368;2022-11-15T03:55:10;11.60;;;6.28;;
35602;SDS011;21725;50.836;4.368;2022-11-15T03:57:38;22.42;;;7.70;;
35602;SDS011;21725;50.836;4.368;2022-11-15T04:00:05;16.75;;;7.88;;
35602;SDS011;21725;50.836;4.368;2022-11-15T04:02:32;13.35;;;6.60;;
35602;SDS011;21725;50.836;4.368;2022-11-15T04:04:58;10.80;;;7.80;;
35602;SDS011;21725;50.836;4.368;2022-11-15T04:07:23;14.27;;;6.88;;
35602;SDS011;21725;50.836;4.368;2022-11-15T04:09:49;14.43;;;6.70;;
35602;SDS011;21725;50.836;4.368;2022-11-15T04:12:30;12.70;;;6.72;;
35602;SDS011;21725;50.836;4.368;2022-11-15T04:14:58;11.20;;;6.55;;
35602;SDS011;21725;50.836;4.368;2022-11-15T04:17:37;12.00;;;6.75;;
35602;SDS011;21725;50.836;4.368;2022-11-15T04:20:06;10.20;;;5.50;;
35602;SDS011;21725;50.836;4.368;2022-11-15T04:22:53;12.60;;;7.45;;
35602;SDS011;21725;50.836;4.368;2022-11-15T04:25:41;10.52;;;6.18;;
35602;SDS011;21725;50.836;4.368;2022-11-15T04:28:07;15.38;;;6.28;;
35602;SDS011;21725;50.836;4.368;2022-11-15T04:30:34;11.38;;;6.55;;
35602;SDS011;21725;50.836;4.368;2022-11-15T04:33:00;8.10;;;5.60;;
35602;SDS011;21725;50.836;4.368;2022-11-15T04:35:26;9.50;;;5.70;;
35602;SDS011;21725;50.836;4.368;2022-11-15T04:37:52;12.50;;;5.53;;
35602;SDS011;21725;50.836;4.368;2022-11-15T04:40:18;10.77;;;5.47;;
35602;SDS011;21725;50.836;4.368;2022-11-15T04:42:44;10.15;;;5.80;;
35602;SDS011;21725;50.836;4.368;2022-11-15T04:45:10;14.05;;;6.72;;
35602;SDS011;21725;50.836;4.368;2022-11-15T04:47:36;10.45;;;5.57;;
35602;SDS011;21725;50.836;4.368;2022-11-15T04:50:02;10.73;;;5.50;;
35602;SDS011;21725;50.836;4.368;2022-11-15T04:52:29;10.93;;;6.13;;
35602;SDS011;21725;50.836;4.368;2022-11-15T04:54:55;11.98;;;5.18;;
35602;SDS011;21725;50.836;4.368;2022-11-15T04:57:21;9.80;;;5.22;;
35602;SDS011;21725;50.836;4.368;2022-11-15T04:59:47;11.98;;;6.07;;
35602;SDS011;21725;50.836;4.368;2022-11-15T05:02:13;8.18;;;4.97;;
35602;SDS011;21725;50.836;4.368;2022-11-15T05:25:47;10.70;;;5.18;;
35602;SDS011;21725;50.836;4.368;2022-11-15T05:28:13;9.98;;;4.93;;
35602;SDS011;21725;50.836;4.368;2022-11-15T05:30:38;24.25;;;6.07;;
35602;SDS011;21725;50.836;4.368;2022-11-15T05:33:04;10.57;;;5.03;;
35602;SDS011;21725;50.836;4.368;2022-11-15T05:35:31;10.95;;;4.25;;
35602;SDS011;21725;50.836;4.368;2022-11-15T05:38:04;11.98;;;6.10;;
35602;SDS011;21725;50.836;4.368;2022-11-15T05:40:30;12.40;;;4.40;;
35602;SDS011;21725;50.836;4.368;2022-11-15T05:42:58;13.13;;;5.93;;
35602;SDS011;21725;50.836;4.368;2022-11-15T05:45:27;13.85;;;5.32;;
35602;SDS011;21725;50.836;4.368;2022-11-15T05:47:54;10.93;;;4.45;;
35602;SDS011;21725;50.836;4.368;2022-11-15T05:50:22;10.13;;;4.25;;
35602;SDS011;21725;50.836;4.368;2022-11-15T05:52:48;9.30;;;4.53;;
35602;SDS011;21725;50.836;4.368;2022-11-15T05:55:14;10.10;;;4.68;;
35602;SDS011;21725;50.836;4.368;2022-11-15T05:57:40;9.25;;;4.10;;
35602;SDS011;21725;50.836;4.368;2022-11-15T06:00:06;9.00;;;4.40;;
35602;SDS011;21725;50.836;4.368;2022-11-15T06:02:34;8.27;;;4.60;;
35602;SDS011;21725;50.836;4.368;2022-11-15T06:04:59;11.48;;;5.68;;
35602;SDS011;21725;50.836;4.368;2022-11-15T06:07:25;8.63;;;4.25;;
35602;SDS011;21725;50.836;4.368;2022-11-15T06:09:51;9.70;;;4.32;;
35602;SDS011;21725;50.836;4.368;2022-11-15T06:12:17;5.90;;;3.92;;
35602;SDS011;21725;50.836;4.368;2022-11-15T06:14:42;10.88;;;6.78;;
35602;SDS011;21725;50.836;4.368;2022-11-15T06:17:08;11.73;;;4.70;;
35602;SDS011;21725;50.836;4.368;2022-11-15T06:19:34;10.27;;;5.28;;
35602;SDS011;21725;50.836;4.368;2022-11-15T06:22:00;9.02;;;3.97;;
35602;SDS011;21725;50.836;4.368;2022-11-15T06:24:26;7.90;;;4.15;;
35602;SDS011;21725;50.836;4.368;2022-11-15T06:26:51;7.90;;;4.53;;
35602;SDS011;21725;50.836;4.368;2022-11-15T06:29:17;12.63;;;4.28;;
35602;SDS011;21725;50.836;4.368;2022-11-15T06:31:43;12.10;;;5.20;;
35602;SDS011;21725;50.836;4.368;2022-11-15T06:34:09;11.10;;;4.63;;
35602;SDS011;21725;50.836;4.368;2022-11-15T06:36:35;10.00;;;3.78;;
35602;SDS011;21725;50.836;4.368;2022-11-15T06:39:02;9.27;;;4.57;;
35602;SDS011;21725;50.836;4.368;2022-11-15T06:41:28;7.80;;;4.30;;
35602;SDS011;21725;50.836;4.368;2022-11-15T06:43:54;11.05;;;5.00;;
35602;SDS011;21725;50.836;4.368;2022-11-15T06:46:20;11.65;;;4.57;;
35602;SDS011;21725;50.836;4.368;2022-11-15T06:48:46;10.15;;;4.88;;
35602;SDS011;21725;50.836;4.368;2022-11-15T06:51:12;9.18;;;5.28;;
35602;SDS011;21725;50.836;4.368;2022-11-15T06:53:38;9.60;;;4.53;;
35602;SDS011;21725;50.836;4.368;2022-11-15T06:56:05;8.88;;;4.57;;
35602;SDS011;21725;50.836;4.368;2022-11-15T06:58:31;8.75;;;5.00;;
35602;SDS011;21725;50.836;4.368;2022-11-15T07:00:58;12.10;;;4.72;;
35602;SDS011;21725;50.836;4.368;2022-11-15T07:03:25;10.50;;;4.80;;
35602;SDS011;21725;50.836;4.368;2022-11-15T07:05:55;7.30;;;4.63;;
35602;SDS011;21725;50.836;4.368;2022-11-15T07:08:22;18.42;;;4.78;;
35602;SDS011;21725;50.836;4.368;2022-11-15T07:10:49;6.10;;;3.85;;
35602;SDS011;21725;50.836;4.368;2022-11-15T07:13:14;9.63;;;4.57;;
35602;SDS011;21725;50.836;4.368;2022-11-15T07:15:40;7.50;;;4.22;;
35602;SDS011;21725;50.836;4.368;2022-11-15T07:18:06;9.38;;;4.35;;
35602;SDS011;21725;50.836;4.368;2022-11-15T07:20:32;11.20;;;3.65;;
35602;SDS011;21725;50.836;4.368;2022-11-15T07:23:04;7.97;;;4.45;;
35602;SDS011;21725;50.836;4.368;2022-11-15T07:25:30;14.15;;;4.20;;
35602;SDS011;21725;50.836;4.368;2022-11-15T07:27:57;6.90;;;3.90;;
35602;SDS011;21725;50.836;4.368;2022-11-15T07:30:23;7.68;;;4.57;;
35602;SDS011;21725;50.836;4.368;2022-11-15T07:32:56;8.18;;;3.85;;
35602;SDS011;21725;50.836;4.368;2022-11-15T07:35:24;10.35;;;5.07;;
35602;SDS011;21725;50.836;4.368;2022-11-15T07:38:00;12.30;;;4.30;;
35602;SDS011;21725;50.836;4.368;2022-11-15T07:40:28;8.48;;;5.03;;
35602;SDS011;21725;50.836;4.368;2022-11-15T07:42:59;7.13;;;4.15;;
35602;SDS011;21725;50.836;4.368;2022-11-15T07:45:28;8.57;;;4.10;;
35602;SDS011;21725;50.836;4.368;2022-11-15T07:47:54;13.15;;;4.18;;
35602;SDS011;21725;50.836;4.368;2022-11-15T07:50:22;7.35;;;3.95;;
35602;SDS011;21725;50.836;4.368;2022-11-15T07:52:55;12.15;;;3.80;;
35602;SDS011;21725;50.836;4.368;2022-11-15T07:55:26;11.93;;;4.47;;
35602;SDS011;21725;50.836;4.368;2022-11-15T07:58:02;8.18;;;4.07;;
35602;SDS011;21725;50.836;4.368;2022-11-15T08:00:32;8.15;;;4.18;;
35602;SDS011;21725;50.836;4.368;2022-11-15T08:03:05;8.43;;;3.47;;
35602;SDS011;21725;50.836;4.368;2022-11-15T08:05:36;8.80;;;3.67;;
35602;SDS011;21725;50.836;4.368;2022-11-15T08:08:04;8.10;;;4.13;;
35602;SDS011;21725;50.836;4.368;2022-11-15T08:10:30;7.30;;;3.00;;
35602;SDS011;21725;50.836;4.368;2022-11-15T08:13:01;10.60;;;3.45;;
35602;SDS011;21725;50.836;4.368;2022-11-15T08:15:31;8.23;;;3.47;;
35602;SDS011;21725;50.836;4.368;2022-11-15T08:17:58;13.30;;;3.58;;
35602;SDS011;21725;50.836;4.368;2022-11-15T08:20:26;7.50;;;3.30;;
35602;SDS011;21725;50.836;4.368;2022-11-15T08:22:55;9.75;;;4.22;;
35602;SDS011;21725;50.836;4.368;2022-11-15T08:25:25;9.80;;;3.50;;
35602;SDS011;21725;50.836;4.368;2022-11-15T08:27:52;5.20;;;2.72;;
35602;SDS011;21725;50.836;4.368;2022-11-15T08:30:19;7.70;;;3.35;;
35602;SDS011;21725;50.836;4.368;2022-11-15T08:32:48;12.45;;;3.00;;
35602;SDS011;21725;50.836;4.368;2022-11-15T08:35:14;6.43;;;2.83;;
35602;SDS011;21725;50.836;4.368;2022-11-15T08:37:41;9.73;;;3.63;;
35602;SDS011;21725;50.836;4.368;2022-11-15T08:40:07;8.70;;;3.15;;
35602;SDS011;21725;50.836;4.368;2022-11-15T08:42:34;7.47;;;3.38;;
35602;SDS011;21725;50.836;4.368;2022-11-15T08:45:01;7.45;;;3.63;;
35602;SDS011;21725;50.836;4.368;2022-11-15T08:47:27;8.50;;;3.15;;
35602;SDS011;21725;50.836;4.368;2022-11-15T08:49:53;5.50;;;2.65;;
35602;SDS011;21725;50.836;4.368;2022-11-15T08:52:19;16.63;;;3.40;;
35602;SDS011;21725;50.836;4.368;2022-11-15T08:54:46;10.55;;;2.72;;
35602;SDS011;21725;50.836;4.368;2022-11-15T08:57:12;7.53;;;3.25;;
35602;SDS011;21725;50.836;4.368;2022-11-15T08:59:41;5.50;;;2.45;;
35602;SDS011;21725;50.836;4.368;2022-11-15T09:02:10;8.48;;;4.20;;
35602;SDS011;21725;50.836;4.368;2022-11-15T09:04:42;6.88;;;2.97;;
35602;SDS011;21725;50.836;4.368;2022-11-15T09:07:09;7.95;;;2.50;;
35602;SDS011;21725;50.836;4.368;2022-11-15T09:09:36;7.53;;;2.70;;
35602;SDS011;21725;50.836;4.368;2022-11-15T09:12:02;20.30;;;4.15;;
35602;SDS011;21725;50.836;4.368;2022-11-15T09:14:29;7.47;;;2.60;;
35602;SDS011;21725;50.836;4.368;2022-11-15T09:16:57;7.20;;;2.45;;
35602;SDS011;21725;50.836;4.368;2022-11-15T09:19:24;8.35;;;2.72;;
35602;SDS011;21725;50.836;4.368;2022-11-15T09:21:52;6.40;;;2.53;;
35602;SDS011;21725;50.836;4.368;2022-11-15T09:24:21;5.90;;;2.53;;
35602;SDS011;21725;50.836;4.368;2022-11-15T09:26:49;6.82;;;2.42;;
35602;SDS011;21725;50.836;4.368;2022-11-15T09:29:18;15.68;;;2.63;;
35602;SDS011;21725;50.836;4.368;2022-11-15T09:31:44;11.85;;;2.95;;
35602;SDS011;21725;50.836;4.368;2022-11-15T09:34:11;7.45;;;2.40;;
35602;SDS011;21725;50.836;4.368;2022-11-15T09:36:36;5.45;;;2.97;;
35602;SDS011;21725;50.836;4.368;2022-11-15T09:39:02;10.65;;;2.83;;
35602;SDS011;21725;50.836;4.368;2022-11-15T09:41:38;10.77;;;4.53;;
35602;SDS011;21725;50.836;4.368;2022-11-15T09:44:19;6.78;;;3.25;;
35602;SDS011;21725;50.836;4.368;2022-11-15T09:49:54;10.85;;;3.78;;
35602;SDS011;21725;50.836;4.368;2022-11-15T09:52:25;11.70;;;5.28;;
35602;SDS011;21725;50.836;4.368;2022-11-15T09:54:52;7.38;;;2.15;;
35602;SDS011;21725;50.836;4.368;2022-11-15T09:57:24;10.18;;;2.70;;
35602;SDS011;21725;50.836;4.368;2022-11-15T10:05:40;4.82;;;2.25;;
35602;SDS011;21725;50.836;4.368;2022-11-15T10:13:16;9.07;;;2.25;;
35602;SDS011;21725;50.836;4.368;2022-11-15T10:15:47;8.48;;;2.17;;
35602;SDS011;21725;50.836;4.368;2022-11-15T10:18:17;5.78;;;2.50;;
35602;SDS011;21725;50.836;4.368;2022-11-15T10:20:58;9.77;;;2.55;;
35602;SDS011;21725;50.836;4.368;2022-11-15T10:23:28;14.00;;;2.70;;
35602;SDS011;21725;50.836;4.368;2022-11-15T10:25:56;11.50;;;3.28;;
35602;SDS011;21725;50.836;4.368;2022-11-15T10:28:27;6.43;;;2.93;;
35602;SDS011;21725;50.836;4.368;2022-11-15T10:30:55;17.02;;;3.13;;
35602;SDS011;21725;50.836;4.368;2022-11-15T10:33:27;6.45;;;2.28;;
35602;SDS011;21725;50.836;4.368;2022-11-15T10:41:16;11.02;;;2.60;;
35602;SDS011;21725;50.836;4.368;2022-11-15T10:43:41;10.32;;;2.83;;
35602;SDS011;21725;50.836;4.368;2022-11-15T10:46:19;8.63;;;2.25;;
35602;SDS011;21725;50.836;4.368;2022-11-15T10:48:49;6.90;;;2.33;;
35602;SDS011;21725;50.836;4.368;2022-11-15T10:51:25;8.27;;;2.90;;
35602;SDS011;21725;50.836;4.368;2022-11-15T10:53:58;8.15;;;2.33;;
35602;SDS011;21725;50.836;4.368;2022-11-15T10:56:26;14.18;;;3.38;;
35602;SDS011;21725;50.836;4.368;2022-11-15T10:58:55;9.77;;;2.58;;
35602;SDS011;21725;50.836;4.368;2022-11-15T11:01:23;7.75;;;2.33;;
35602;SDS011;21725;50.836;4.368;2022-11-15T11:24:32;5.05;;;2.42;;
35602;SDS011;21725;50.836;4.368;2022-11-15T11:30:24;5.07;;;2.28;;
35602;SDS011;21725;50.836;4.368;2022-11-15T11:33:20;4.70;;;2.75;;
35602;SDS011;21725;50.836;4.368;2022-11-15T11:35:50;4.10;;;1.83;;
35602;SDS011;21725;50.836;4.368;2022-11-15T11:41:20;10.95;;;2.67;;
35602;SDS011;21725;50.836;4.368;2022-11-15T11:49:15;9.27;;;3.22;;
35602;SDS011;21725;50.836;4.368;2022-11-15T11:51:56;7.30;;;3.30;;
35602;SDS011;21725;50.836;4.368;2022-11-15T11:56:58;15.68;;;3.03;;
35602;SDS011;21725;50.836;4.368;2022-11-15T12:04:53;10.82;;;2.53;;
35602;SDS011;21725;50.836;4.368;2022-11-15T12:07:29;10.20;;;2.83;;
35602;SDS011;21725;50.836;4.368;2022-11-15T12:09:59;7.97;;;3.00;;
35602;SDS011;21725;50.836;4.368;2022-11-15T12:12:44;7.32;;;2.58;;
35602;SDS011;21725;50.836;4.368;2022-11-15T12:15:19;12.02;;;2.90;;
35602;SDS011;21725;50.836;4.368;2022-11-15T12:20:30;5.18;;;2.05;;
35602;SDS011;21725;50.836;4.368;2022-11-15T12:23:05;10.00;;;2.45;;
35602;SDS011;21725;50.836;4.368;2022-11-15T12:33:48;7.95;;;2.40;;
35602;SDS011;21725;50.836;4.368;2022-11-15T12:38:53;7.68;;;2.58;;
35602;SDS011;21725;50.836;4.368;2022-11-15T12:41:19;5.50;;;1.67;;
35602;SDS011;21725;50.836;4.368;2022-11-15T12:43:47;4.60;;;2.25;;
35602;SDS011;21725;50.836;4.368;2022-11-15T12:52:08;5.70;;;1.83;;
35602;SDS011;21725;50.836;4.368;2022-11-15T12:54:49;5.95;;;2.30;;
35602;SDS011;21725;50.836;4.368;2022-11-15T12:57:32;3.80;;;1.67;;
35602;SDS011;21725;50.836;4.368;2022-11-15T13:00:36;9.15;;;2.80;;
35602;SDS011;21725;50.836;4.368;2022-11-15T13:02:55;7.28;;;2.55;;
35602;SDS011;21725;50.836;4.368;2022-11-15T13:08:07;7.20;;;2.55;;
35602;SDS011;21725;50.836;4.368;2022-11-15T13:10:33;5.60;;;2.10;;
35602;SDS011;21725;50.836;4.368;2022-11-15T13:13:00;11.75;;;2.75;;
35602;SDS011;21725;50.836;4.368;2022-11-15T13:18:29;6.10;;;2.30;;
35602;SDS011;21725;50.836;4.368;2022-11-15T13:20:59;6.13;;;1.98;;
35602;SDS011;21725;50.836;4.368;2022-11-15T13:23:26;5.10;;;2.10;;
35602;SDS011;21725;50.836;4.368;2022-11-15T13:28:37;4.80;;;2.45;;
35602;SDS011;21725;50.836;4.368;2022-11-15T13:33:50;5.70;;;2.40;;
35602;SDS011;21725;50.836;4.368;2022-11-15T13:36:23;4.18;;;1.90;;
35602;SDS011;21725;50.836;4.368;2022-11-15T13:39:00;6.75;;;2.10;;
35602;SDS011;21725;50.836;4.368;2022-11-15T13:41:34;7.22;;;2.42;;
35602;SDS011;21725;50.836;4.368;2022-11-15T13:44:02;6.20;;;2.55;;
35602;SDS011;21725;50.836;4.368;2022-11-15T13:46:33;5.80;;;2.38;;
35602;SDS011;21725;50.836;4.368;2022-11-15T13:49:00;4.50;;;2.45;;
35602;SDS011;21725;50.836;4.368;2022-11-15T13:51:34;6.13;;;2.60;;
35602;SDS011;21725;50.836;4.368;2022-11-15T13:56:38;6.97;;;3.00;;
35602;SDS011;21725;50.836;4.368;2022-11-15T13:59:13;4.60;;;2.40;;
35602;SDS011;21725;50.836;4.368;2022-11-15T14:01:49;7.43;;;2.83;;
35602;SDS011;21725;50.836;4.368;2022-11-15T14:04:18;4.32;;;2.17;;
35602;SDS011;21725;50.836;4.368;2022-11-15T14:06:51;3.53;;;2.10;;
35602;SDS011;21725;50.836;4.368;2022-11-15T14:09:34;4.80;;;2.30;;
35602;SDS011;21725;50.836;4.368;2022-11-15T14:12:03;5.55;;;2.40;;
35602;SDS011;21725;50.836;4.368;2022-11-15T14:14:46;5.18;;;2.20;;
35602;SDS011;21725;50.836;4.368;2022-11-15T14:17:33;6.57;;;2.28;;
35602;SDS011;21725;50.836;4.368;2022-11-15T14:20:19;8.80;;;2.65;;
35602;SDS011;21725;50.836;4.368;2022-11-15T14:23:24;7.32;;;2.53;;
35602;SDS011;21725;50.836;4.368;2022-11-15T14:25:54;6.07;;;2.88;;
35602;SDS011;21725;50.836;4.368;2022-11-15T14:30:50;4.50;;;2.03;;
35602;SDS011;21725;50.836;4.368;2022-11-15T14:33:43;3.63;;;2.30;;
35602;SDS011;21725;50.836;4.368;2022-11-15T14:36:13;7.00;;;3.55;;
35602;SDS011;21725;50.836;4.368;2022-11-15T14:38:40;6.60;;;2.72;;
35602;SDS011;21725;50.836;4.368;2022-11-15T14:41:23;4.20;;;2.88;;
35602;SDS011;21725;50.836;4.368;2022-11-15T14:43:51;5.18;;;2.60;;
35602;SDS011;21725;50.836;4.368;2022-11-15T14:46:18;7.03;;;3.22;;
35602;SDS011;21725;50.836;4.368;2022-11-15T14:48:48;4.65;;;2.00;;
35602;SDS011;21725;50.836;4.368;2022-11-15T14:51:15;4.25;;;2.28;;
35602;SDS011;21725;50.836;4.368;2022-11-15T14:53:42;4.43;;;2.05;;
35602;SDS011;21725;50.836;4.368;2022-11-15T14:56:12;5.38;;;2.75;;
35602;SDS011;21725;50.836;4.368;2022-11-15T14:58:41;4.82;;;2.08;;
35602;SDS011;21725;50.836;4.368;2022-11-15T15:01:12;5.10;;;2.63;;
35602;SDS011;21725;50.836;4.368;2022-11-15T15:03:45;4.25;;;2.38;;
35602;SDS011;21725;50.836;4.368;2022-11-15T15:06:12;4.75;;;2.25;;
35602;SDS011;21725;50.836;4.368;2022-11-15T15:08:39;4.45;;;2.05;;
35602;SDS011;21725;50.836;4.368;2022-11-15T15:11:16;8.32;;;2.78;;
35602;SDS011;21725;50.836;4.368;2022-11-15T15:13:47;4.68;;;1.90;;
35602;SDS011;21725;50.836;4.368;2022-11-15T15:16:13;4.13;;;2.85;;
35602;SDS011;21725;50.836;4.368;2022-11-15T15:18:39;6.70;;;2.70;;
35602;SDS011;21725;50.836;4.368;2022-11-15T15:21:11;4.78;;;2.35;;
35602;SDS011;21725;50.836;4.368;2022-11-15T15:23:49;7.28;;;3.08;;
35602;SDS011;21725;50.836;4.368;2022-11-15T15:26:15;5.35;;;2.30;;
35602;SDS011;21725;50.836;4.368;2022-11-15T15:28:41;5.15;;;2.60;;
35602;SDS011;21725;50.836;4.368;2022-11-15T15:31:09;5.18;;;2.67;;
35602;SDS011;21725;50.836;4.368;2022-11-15T15:33:35;5.10;;;2.53;;
35602;SDS011;21725;50.836;4.368;2022-11-15T15:36:01;5.80;;;2.47;;
35602;SDS011;21725;50.836;4.368;2022-11-15T15:38:31;4.82;;;2.97;;
35602;SDS011;21725;50.836;4.368;2022-11-15T15:41:01;4.80;;;2.33;;
35602;SDS011;21725;50.836;4.368;2022-11-15T15:43:27;4.43;;;2.55;;
35602;SDS011;21725;50.836;4.368;2022-11-15T15:45:54;4.25;;;2.75;;
35602;SDS011;21725;50.836;4.368;2022-11-15T15:48:20;5.38;;;2.42;;
35602;SDS011;21725;50.836;4.368;2022-11-15T15:50:46;10.88;;;3.72;;
35602;SDS011;21725;50.836;4.368;2022-11-15T15:53:14;7.35;;;2.80;;
35602;SDS011;21725;50.836;4.368;2022-11-15T15:55:40;7.07;;;2.65;;
35602;SDS011;21725;50.836;4.368;2022-11-15T15:58:06;4.47;;;2.67;;
35602;SDS011;21725;50.836;4.368;2022-11-15T16:00:33;4.57;;;2.40;;
35602;SDS011;21725;50.836;4.368;2022-11-15T16:02:59;6.47;;;3.40;;
35602;SDS011;21725;50.836;4.368;2022-11-15T16:05:25;3.50;;;2.42;;
35602;SDS011;21725;50.836;4.368;2022-11-15T16:07:52;5.38;;;2.95;;
35602;SDS011;21725;50.836;4.368;2022-11-15T16:10:23;7.10;;;3.13;;
35602;SDS011;21725;50.836;4.368;2022-11-15T16:12:51;4.68;;;2.50;;
35602;SDS011;21725;50.836;4.368;2022-11-15T16:15:18;5.25;;;2.80;;
35602;SDS011;21725;50.836;4.368;2022-11-15T16:17:46;5.43;;;2.50;;
35602;SDS011;21725;50.836;4.368;2022-11-15T16:22:58;6.05;;;2.80;;
35602;SDS011;21725;50.836;4.368;2022-11-15T16:25:26;8.95;;;4.00;;
35602;SDS011;21725;50.836;4.368;2022-11-15T16:27:52;7.45;;;3.60;;
35602;SDS011;21725;50.836;4.368;2022-11-15T16:30:20;6.65;;;3.50;;
35602;SDS011;21725;50.836;4.368;2022-11-15T16:32:48;6.15;;;3.22;;
35602;SDS011;21725;50.836;4.368;2022-11-15T16:35:15;5.53;;;3.35;;
35602;SDS011;21725;50.836;4.368;2022-11-15T16:37:46;6.20;;;3.42;;
35602;SDS011;21725;50.836;4.368;2022-11-15T16:42:46;9.40;;;3.78;;
35602;SDS011;21725;50.836;4.368;2022-11-15T16:45:13;4.30;;;2.40;;
35602;SDS011;21725;50.836;4.368;2022-11-15T16:47:50;4.55;;;2.75;;
35602;SDS011;21725;50.836;4.368;2022-11-15T16:50:25;8.85;;;3.60;;
35602;SDS011;21725;50.836;4.368;2022-11-15T16:52:57;6.18;;;2.70;;
35602;SDS011;21725;50.836;4.368;2022-11-15T16:55:24;5.50;;;3.28;;
35602;SDS011;21725;50.836;4.368;2022-11-15T16:57:52;4.53;;;2.80;;
35602;SDS011;21725;50.836;4.368;2022-11-15T17:00:19;6.70;;;3.20;;
35602;SDS011;21725;50.836;4.368;2022-11-15T17:34:39;6.70;;;4.13;;
35602;SDS011;21725;50.836;4.368;2022-11-15T17:37:05;9.57;;;4.65;;
35602;SDS011;21725;50.836;4.368;2022-11-15T17:39:31;9.27;;;4.25;;
35602;SDS011;21725;50.836;4.368;2022-11-15T17:41:57;8.20;;;3.95;;
35602;SDS011;21725;50.836;4.368;2022-11-15T17:44:23;6.50;;;3.67;;
35602;SDS011;21725;50.836;4.368;2022-11-15T17:46:49;6.05;;;3.60;;
35602;SDS011;21725;50.836;4.368;2022-11-15T17:49:15;6.93;;;4.00;;
35602;SDS011;21725;50.836;4.368;2022-11-15T17:51:41;6.20;;;4.32;;
35602;SDS011;21725;50.836;4.368;2022-11-15T17:54:09;5.40;;;3.22;;
35602;SDS011;21725;50.836;4.368;2022-11-15T17:56:37;6.72;;;3.95;;